Time;durP1;ratioP1;P1;durP2;ratioP2;P2;SDS_P1;SDS_P2;PMS_P1;PMS_P2;Temp;Humidity;BMP_temperature;BMP_pressure;BME280_temperature;BME280_humidity;BME280_pressure;Samples;Min_cycle;Max_cycle;Signal;HPM_P1;HPM_P2
2022/09/27 00:01:59;;;;;;;;;;;;;;;;;;5086777;28;19908;-61
2022/09/27 00:04:25;;;;;;;;;;;;;;;;;;5073620;28;19916;-62
2022/09/27 00:06:50;;;;;;;;;;;;;;;;;;5090813;28;19938;-62
2022/09/27 00:09:15;;;;;;;;;;;;;;;;;;5091142;28;19941;-62
2022/09/27 00:11:43;;;;;;;;;;;;;;;;;;5088568;28;20368;-62
2022/09/27 00:14:08;;;;;;;;;;;;;;;;;;5073482;28;19913;-63
2022/09/27 00:16:34;;;;;;;;;;;;;;;;;;5071886;28;19916;-62
2022/09/27 00:18:59;;;;;;;;;;;;;;;;;;5082099;28;19927;-62
2022/09/27 00:21:24;;;;;;;;;;;;;;;;;;5090097;28;20471;-63
2022/09/27 00:23:49;;;;;;;;;;;;;;;;;;5084737;28;19927;-62
2022/09/27 00:26:14;;;;;;;;;;;;;;;;;;5088124;28;19930;-62
2022/09/27 00:28:40;;;;;;;;;;;;;;;;;;5071243;28;19966;-63
2022/09/27 00:31:05;;;;;;;;;;;;;;;;;;5071833;28;19915;-62
2022/09/27 00:33:30;;;;;;;;;;;;;;;;;;5078869;28;19932;-62
2022/09/27 00:35:55;;;;;;;;;;;;;;;;;;5087092;28;19947;-61
2022/09/27 00:38:20;;;;;;;;;;;;;;;;;;5084457;28;19994;-62
2022/09/27 00:40:46;;;;;;;;;;;;;;;;;;5090079;28;19912;-62
2022/09/27 00:43:11;;;;;;;;;;;;;;;;;;5075401;28;19963;-62
2022/09/27 00:45:36;;;;;;;;;;;;;;;;;;5070520;28;20011;-61
2022/09/27 00:48:01;;;;;;;;;;;;;;;;;;5075427;28;19927;-62
2022/09/27 00:50:26;;;;;;;;;;;;;;;;;;5064246;28;19912;-62
2022/09/27 00:52:54;;;;;;;;;;;;;;;;;;5079879;28;19918;-62
2022/09/27 00:55:19;;;;;;;;;;;;;;;;;;5078459;28;19912;-63
2022/09/27 00:57:44;;;;;;;;;;;;;;;;;;5088577;28;20403;-63
2022/09/27 01:00:09;;;;;;;;;;;;;;;;;;5094995;28;20006;-62
2022/09/27 01:02:35;;;;;;;;;;;;;;;;;;5093320;28;19912;-61
2022/09/27 01:05:00;;;;;;;;;;;;;;;;;;5065323;28;19916;-62
2022/09/27 01:07:25;;;;;;;;;;;;;;;;;;5092432;28;19912;-62
2022/09/27 01:09:51;;;;;;;;;;;;;;;;;;5076131;28;19916;-62
2022/09/27 01:12:16;;;;;;;;;;;;;;;;;;5095065;28;19908;-62
2022/09/27 01:14:41;;;;;;;;;;;;;;;;;;5091994;28;19916;-62
2022/09/27 01:17:06;;;;;;;;;;;;;;;;;;5073276;28;20448;-62
2022/09/27 01:19:32;;;;;;;;;;;;;;;;;;5069734;28;19920;-62
2022/09/27 01:21:57;;;;;;;;;;;;;;;;;;5091551;28;19912;-61
2022/09/27 01:24:22;;;;;;;;;;;;;;;;;;5089227;28;19920;-61
2022/09/27 01:26:47;;;;;;;;;;;;;;;;;;5081369;28;20262;-62
2022/09/27 01:29:12;;;;;;;;;;;;;;;;;;5080170;28;20426;-62
2022/09/27 01:31:37;;;;;;;;;;;;;;;;;;5093687;28;20010;-62
2022/09/27 01:34:02;;;;;;;;;;;;;;;;;;5093166;28;19912;-61
2022/09/27 01:36:28;;;;;;;;;;;;;;;;;;5089837;28;19912;-62
2022/09/27 01:38:53;;;;;;;;;;;;;;;;;;5073940;28;19916;-62
2022/09/27 01:41:18;;;;;;;;;;;;;;;;;;5090635;28;19923;-62
2022/09/27 01:43:43;;;;;;;;;;;;;;;;;;5079686;28;20396;-62
2022/09/27 01:46:08;;;;;;;;;;;;;;;;;;5068312;28;19913;-62
2022/09/27 01:48:33;;;;;;;;;;;;;;;;;;5078171;28;19913;-62
2022/09/27 01:50:58;;;;;;;;;;;;;;;;;;5079283;28;19939;-62
2022/09/27 01:53:24;;;;;;;;;;;;;;;;;;5077007;28;20277;-62
2022/09/27 01:55:49;;;;;;;;;;;;;;;;;;5080175;28;19912;-62
2022/09/27 01:58:14;;;;;;;;;;;;;;;;;;5089985;28;19912;-62
2022/09/27 02:00:39;;;;;;;;;;;;;;;;;;5090891;28;19974;-62
2022/09/27 02:03:04;;;;;;;;;;;;;;;;;;5075456;28;20401;-62
2022/09/27 02:05:29;;;;;;;;;;;;;;;;;;5083803;28;19923;-62
2022/09/27 02:07:55;;;;;;;;;;;;;;;;;;5072984;28;20265;-62
2022/09/27 02:10:20;;;;;;;;;;;;;;;;;;5085146;28;19927;-63
2022/09/27 02:12:45;;;;;;;;;;;;;;;;;;5082301;28;20288;-62
2022/09/27 02:15:10;;;;;;;;;;;;;;;;;;5080694;28;19920;-62
2022/09/27 02:17:36;;;;;;;;;;;;;;;;;;5072356;28;19912;-62
2022/09/27 02:20:02;;;;;;;;;;;;;;;;;;5083047;28;19964;-62
2022/09/27 02:22:27;;;;;;;;;;;;;;;;;;5073467;28;19912;-63
2022/09/27 02:24:53;;;;;;;;;;;;;;;;;;5090203;28;19916;-62
2022/09/27 02:27:18;;;;;;;;;;;;;;;;;;5076659;28;19913;-63
2022/09/27 02:29:43;;;;;;;;;;;;;;;;;;5067083;28;19995;-61
2022/09/27 02:32:08;;;;;;;;;;;;;;;;;;5086832;28;20380;-62
2022/09/27 02:34:33;;;;;;;;;;;;;;;;;;5076262;28;19908;-62
2022/09/27 02:36:58;;;;;;;;;;;;;;;;;;5083250;28;20300;-62
2022/09/27 02:39:24;;;;;;;;;;;;;;;;;;5092013;28;20373;-62
2022/09/27 02:41:49;;;;;;;;;;;;;;;;;;5091497;28;19934;-62
2022/09/27 02:44:14;;;;;;;;;;;;;;;;;;5087020;28;19919;-62
2022/09/27 02:46:39;;;;;;;;;;;;;;;;;;5076580;28;19998;-62
2022/09/27 02:49:04;;;;;;;;;;;;;;;;;;5081113;28;19908;-61
2022/09/27 02:51:30;;;;;;;;;;;;;;;;;;5078367;28;20011;-62
2022/09/27 02:53:55;;;;;;;;;;;;;;;;;;5071999;28;20288;-62
2022/09/27 02:56:20;;;;;;;;;;;;;;;;;;5086940;28;19920;-62
2022/09/27 02:58:45;;;;;;;;;;;;;;;;;;5082726;28;19923;-62
2022/09/27 03:01:10;;;;;;;;;;;;;;;;;;5076936;28;19921;-62
2022/09/27 03:03:35;;;;;;;;;;;;;;;;;;5076012;28;19912;-62
2022/09/27 03:06:00;;;;;;;;;;;;;;;;;;5087550;28;19923;-62
2022/09/27 03:08:26;;;;;;;;;;;;;;;;;;5082827;28;19933;-61
2022/09/27 03:10:51;;;;;;;;;;;;;;;;;;5090920;28;19911;-61
2022/09/27 03:13:16;;;;;;;;;;;;;;;;;;5091391;28;19934;-61
2022/09/27 03:15:41;;;;;;;;;;;;;;;;;;5067819;28;19919;-61
2022/09/27 03:18:07;;;;;;;;;;;;;;;;;;5080092;28;19931;-62
2022/09/27 03:20:32;;;;;;;;;;;;;;;;;;5082086;28;19912;-61
2022/09/27 03:22:57;;;;;;;;;;;;;;;;;;5078171;28;20364;-62
2022/09/27 03:25:22;;;;;;;;;;;;;;;;;;5079700;28;19908;-62
2022/09/27 03:27:47;;;;;;;;;;;;;;;;;;5075058;28;19913;-62
2022/09/27 03:30:13;;;;;;;;;;;;;;;;;;5071222;28;19915;-62
2022/09/27 03:32:38;;;;;;;;;;;;;;;;;;5074991;28;19993;-62
2022/09/27 03:35:03;;;;;;;;;;;;;;;;;;5081023;28;19923;-60
2022/09/27 03:37:28;;;;;;;;;;;;;;;;;;5072896;28;19966;-62
2022/09/27 03:39:53;;;;;;;;;;;;;;;;;;5089307;28;19923;-62
2022/09/27 03:42:18;;;;;;;;;;;;;;;;;;5082696;28;20311;-61
2022/09/27 03:44:44;;;;;;;;;;;;;;;;;;5085616;28;19919;-62
2022/09/27 03:47:09;;;;;;;;;;;;;;;;;;5068535;28;19915;-62
2022/09/27 03:49:34;;;;;;;;;;;;;;;;;;5083391;28;19919;-62
2022/09/27 03:51:59;;;;;;;;;;;;;;;;;;5076410;28;19913;-62
2022/09/27 03:54:24;;;;;;;;;;;;;;;;;;5060988;28;19912;-62
2022/09/27 03:56:50;;;;;;;;;;;;;;;;;;5089163;28;19963;-62
2022/09/27 03:59:15;;;;;;;;;;;;;;;;;;5088433;28;20335;-62
2022/09/27 04:01:41;;;;;;;;;;;;;;;;;;5083023;28;20047;-63
2022/09/27 04:04:06;;;;;;;;;;;;;;;;;;5083852;28;19916;-62
2022/09/27 04:06:32;;;;;;;;;;;;;;;;;;5077032;28;19919;-62
2022/09/27 04:08:57;;;;;;;;;;;;;;;;;;5084297;28;19912;-62
2022/09/27 04:11:22;;;;;;;;;;;;;;;;;;5081803;28;19912;-62
2022/09/27 04:13:48;;;;;;;;;;;;;;;;;;5090895;28;20391;-62
2022/09/27 04:16:13;;;;;;;;;;;;;;;;;;5091073;28;19919;-62
2022/09/27 04:18:38;;;;;;;;;;;;;;;;;;5081862;28;19920;-62
2022/09/27 04:21:03;;;;;;;;;;;;;;;;;;5063929;28;19912;-62
2022/09/27 04:23:28;;;;;;;;;;;;;;;;;;5084484;28;20287;-62
2022/09/27 04:25:54;;;;;;;;;;;;;;;;;;5087256;28;19919;-62
2022/09/27 04:28:19;;;;;;;;;;;;;;;;;;5092228;28;19963;-62
2022/09/27 04:30:44;;;;;;;;;;;;;;;;;;5094818;28;19912;-62
2022/09/27 04:33:09;;;;;;;;;;;;;;;;;;5080581;28;20361;-63
2022/09/27 04:38:21;;;;;;;;;;;;;;;;;;5088352;28;19971;-62
2022/09/27 04:40:47;;;;;;;;;;;;;;;;;;5094598;28;19912;-62
2022/09/27 04:43:13;;;;;;;;;;;;;;;;;;5074623;28;19961;-62
2022/09/27 04:45:38;;;;;;;;;;;;;;;;;;5083311;28;19912;-62
2022/09/27 04:48:03;;;;;;;;;;;;;;;;;;5077695;28;20359;-62
2022/09/27 04:50:28;;;;;;;;;;;;;;;;;;5092267;28;19920;-62
2022/09/27 04:52:53;;;;;;;;;;;;;;;;;;5071653;28;19956;-62
2022/09/27 04:55:19;;;;;;;;;;;;;;;;;;5079888;28;20272;-62
2022/09/27 04:57:44;;;;;;;;;;;;;;;;;;5071469;28;19915;-60
2022/09/27 05:00:10;;;;;;;;;;;;;;;;;;5086633;28;20394;-62
2022/09/27 05:02:35;;;;;;;;;;;;;;;;;;5094583;28;19938;-62
2022/09/27 05:05:00;;;;;;;;;;;;;;;;;;5086588;28;19916;-62
2022/09/27 05:07:25;;;;;;;;;;;;;;;;;;5071541;28;19995;-61
2022/09/27 05:09:50;;;;;;;;;;;;;;;;;;5069439;28;19967;-62
2022/09/27 05:12:16;;;;;;;;;;;;;;;;;;5090787;28;20342;-61
2022/09/27 05:14:41;;;;;;;;;;;;;;;;;;5093573;28;20011;-62
2022/09/27 05:17:06;;;;;;;;;;;;;;;;;;5076738;28;19966;-62
2022/09/27 05:19:31;;;;;;;;;;;;;;;;;;5083907;28;19920;-62
2022/09/27 05:21:57;;;;;;;;;;;;;;;;;;5079537;28;19912;-62
2022/09/27 05:24:22;;;;;;;;;;;;;;;;;;5085037;28;19916;-62
2022/09/27 05:26:47;;;;;;;;;;;;;;;;;;5081470;28;20641;-63
2022/09/27 05:29:12;;;;;;;;;;;;;;;;;;5089117;28;20440;-62
2022/09/27 05:31:37;;;;;;;;;;;;;;;;;;5079460;28;19912;-62
2022/09/27 05:34:02;;;;;;;;;;;;;;;;;;5094284;28;20058;-63
2022/09/27 05:36:28;;;;;;;;;;;;;;;;;;5080071;28;20276;-63
2022/09/27 05:38:53;;;;;;;;;;;;;;;;;;5092702;28;19919;-60
2022/09/27 05:41:18;;;;;;;;;;;;;;;;;;5078454;28;20012;-62
2022/09/27 05:43:44;;;;;;;;;;;;;;;;;;5086745;28;19912;-62
2022/09/27 05:46:09;;;;;;;;;;;;;;;;;;5083657;28;20364;-62
2022/09/27 05:48:35;;;;;;;;;;;;;;;;;;5078163;28;19912;-62
2022/09/27 05:51:01;;;;;;;;;;;;;;;;;;5076736;28;19916;-62
2022/09/27 05:53:26;;;;;;;;;;;;;;;;;;5082959;28;19923;-63
2022/09/27 05:55:51;;;;;;;;;;;;;;;;;;5071919;28;19962;-62
2022/09/27 05:58:16;;;;;;;;;;;;;;;;;;5074232;28;19920;-61
2022/09/27 06:00:42;;;;;;;;;;;;;;;;;;5072012;28;20291;-62
2022/09/27 06:03:07;;;;;;;;;;;;;;;;;;5077272;28;19919;-63
2022/09/27 06:05:32;;;;;;;;;;;;;;;;;;5076314;28;20269;-62
2022/09/27 06:07:57;;;;;;;;;;;;;;;;;;5074103;28;19920;-62
2022/09/27 06:10:23;;;;;;;;;;;;;;;;;;5085387;28;19912;-62
2022/09/27 06:12:49;;;;;;;;;;;;;;;;;;5090955;28;19922;-62
2022/09/27 06:15:14;;;;;;;;;;;;;;;;;;5092194;28;19978;-62
2022/09/27 06:17:39;;;;;;;;;;;;;;;;;;5087967;28;20312;-61
2022/09/27 06:20:04;;;;;;;;;;;;;;;;;;5073467;28;19913;-62
2022/09/27 06:22:29;;;;;;;;;;;;;;;;;;5060367;28;19966;-63
2022/09/27 06:24:54;;;;;;;;;;;;;;;;;;5084252;28;19913;-61
2022/09/27 06:27:20;;;;;;;;;;;;;;;;;;5073318;28;20304;-62
2022/09/27 06:29:45;;;;;;;;;;;;;;;;;;5072997;28;19913;-62
2022/09/27 06:32:11;;;;;;;;;;;;;;;;;;5073184;28;19919;-62
2022/09/27 06:34:36;;;;;;;;;;;;;;;;;;5065168;28;20287;-61
2022/09/27 06:37:01;;;;;;;;;;;;;;;;;;5075412;28;19908;-63
2022/09/27 06:39:27;;;;;;;;;;;;;;;;;;5092759;28;19912;-61
2022/09/27 06:41:56;;;;;;;;;;;;;;;;;;5093614;28;19908;-61
2022/09/27 06:44:23;;;;;;;;;;;;;;;;;;5089487;28;20568;-62
2022/09/27 06:46:48;;;;;;;;;;;;;;;;;;5067289;28;19961;-62
2022/09/27 06:49:13;;;;;;;;;;;;;;;;;;5074918;28;19920;-62
2022/09/27 06:51:38;;;;;;;;;;;;;;;;;;5075983;28;19919;-62
2022/09/27 06:54:03;;;;;;;;;;;;;;;;;;5069439;28;19919;-61
2022/09/27 06:56:28;;;;;;;;;;;;;;;;;;5062768;28;19955;-62
2022/09/27 07:01:37;;;;;;;;;;;;;;;;;;5090382;28;19930;-62
2022/09/27 07:04:02;;;;;;;;;;;;;;;;;;5080717;28;20372;-63
2022/09/27 07:06:27;;;;;;;;;;;;;;;;;;5080176;28;19959;-62
2022/09/27 07:08:53;;;;;;;;;;;;;;;;;;5075014;28;19923;-62
2022/09/27 07:11:18;;;;;;;;;;;;;;;;;;5078636;28;19912;-62
2022/09/27 07:13:43;;;;;;;;;;;;;;;;;;5079397;28;19912;-62
2022/09/27 07:16:08;;;;;;;;;;;;;;;;;;5082707;28;19918;-62
2022/09/27 07:18:33;;;;;;;;;;;;;;;;;;5082959;28;19931;-62
2022/09/27 07:21:00;;;;;;;;;;;;;;;;;;5084560;28;20288;-62
2022/09/27 07:23:26;;;;;;;;;;;;;;;;;;5057812;28;20254;-62
2022/09/27 07:25:51;;;;;;;;;;;;;;;;;;5088114;28;19912;-62
2022/09/27 07:28:16;;;;;;;;;;;;;;;;;;5085142;28;19909;-62
2022/09/27 07:30:42;;;;;;;;;;;;;;;;;;5072547;28;19951;-63
2022/09/27 07:33:08;;;;;;;;;;;;;;;;;;5090992;28;20003;-62
2022/09/27 07:35:33;;;;;;;;;;;;;;;;;;5091899;28;19918;-62
2022/09/27 07:37:59;;;;;;;;;;;;;;;;;;5090611;28;19963;-63
2022/09/27 07:40:24;;;;;;;;;;;;;;;;;;5081992;28;19919;-63
2022/09/27 07:42:49;;;;;;;;;;;;;;;;;;5076751;28;19913;-62
2022/09/27 07:45:16;;;;;;;;;;;;;;;;;;5078879;28;20360;-62
2022/09/27 07:47:41;;;;;;;;;;;;;;;;;;5077232;28;19920;-63
2022/09/27 07:50:06;;;;;;;;;;;;;;;;;;5081019;28;19919;-63
2022/09/27 07:52:31;;;;;;;;;;;;;;;;;;5082599;28;19999;-62
2022/09/27 07:54:57;;;;;;;;;;;;;;;;;;5081881;28;20308;-63
2022/09/27 07:57:23;;;;;;;;;;;;;;;;;;5079141;28;19979;-63
2022/09/27 07:59:48;;;;;;;;;;;;;;;;;;5079904;28;19967;-63
2022/09/27 08:02:14;;;;;;;;;;;;;;;;;;5086555;28;19916;-60
2022/09/27 08:04:39;;;;;;;;;;;;;;;;;;5078945;28;19943;-62
2022/09/27 08:07:04;;;;;;;;;;;;;;;;;;5076362;28;19912;-62
2022/09/27 08:09:29;;;;;;;;;;;;;;;;;;5076610;28;20395;-62
2022/09/27 08:11:56;;;;;;;;;;;;;;;;;;5095402;28;20004;-62
2022/09/27 08:14:22;;;;;;;;;;;;;;;;;;5072815;28;19916;-62
2022/09/27 08:16:48;;;;;;;;;;;;;;;;;;5074849;28;20002;-63
2022/09/27 08:19:14;;;;;;;;;;;;;;;;;;5083708;28;20014;-62
2022/09/27 08:21:39;;;;;;;;;;;;;;;;;;5087048;28;19999;-62
2022/09/27 08:24:05;;;;;;;;;;;;;;;;;;5089918;28;20007;-62
2022/09/27 08:26:30;;;;;;;;;;;;;;;;;;5077109;28;20562;-63
2022/09/27 08:28:55;;;;;;;;;;;;;;;;;;5095892;28;19915;-62
2022/09/27 08:31:22;;;;;;;;;;;;;;;;;;5085452;28;19959;-63
2022/09/27 08:33:47;;;;;;;;;;;;;;;;;;5089372;28;20357;-62
2022/09/27 08:36:12;;;;;;;;;;;;;;;;;;5081408;28;19912;-62
2022/09/27 08:38:37;;;;;;;;;;;;;;;;;;5084040;28;19961;-62
2022/09/27 08:41:02;;;;;;;;;;;;;;;;;;5077075;28;19912;-63
2022/09/27 08:43:27;;;;;;;;;;;;;;;;;;5077264;28;19960;-63
2022/09/27 08:45:52;;;;;;;;;;;;;;;;;;5086196;28;19912;-62
2022/09/27 08:48:18;;;;;;;;;;;;;;;;;;5081428;28;20441;-63
2022/09/27 08:50:43;;;;;;;;;;;;;;;;;;5084460;28;19916;-63
2022/09/27 08:53:08;;;;;;;;;;;;;;;;;;5082577;28;19912;-63
2022/09/27 08:55:36;;;;;;;;;;;;;;;;;;5077162;28;19920;-63
2022/09/27 08:58:01;;;;;;;;;;;;;;;;;;5059756;28;19916;-62
2022/09/27 09:00:26;;;;;;;;;;;;;;;;;;5095161;28;19998;-62
2022/09/27 09:02:51;;;;;;;;;;;;;;;;;;5095408;28;20288;-63
2022/09/27 09:05:16;;;;;;;;;;;;;;;;;;5084245;28;19912;-62
2022/09/27 09:07:41;;;;;;;;;;;;;;;;;;5084144;28;19958;-61
2022/09/27 09:10:07;;;;;;;;;;;;;;;;;;5088721;28;19918;-62
2022/09/27 09:12:47;;;;;;;;;;;;;;;;;;5074159;28;19919;-63
2022/09/27 09:15:12;;;;;;;;;;;;;;;;;;5084889;28;19919;-62
2022/09/27 09:17:38;;;;;;;;;;;;;;;;;;5079615;28;19916;-61
2022/09/27 09:20:03;;;;;;;;;;;;;;;;;;5076249;28;19916;-62
2022/09/27 09:22:28;;;;;;;;;;;;;;;;;;5075763;28;19963;-61
2022/09/27 09:24:53;;;;;;;;;;;;;;;;;;5082835;28;19972;-62
2022/09/27 09:27:18;;;;;;;;;;;;;;;;;;5074896;28;19951;-62
2022/09/27 09:29:44;;;;;;;;;;;;;;;;;;5077777;28;19912;-63
2022/09/27 09:32:09;;;;;;;;;;;;;;;;;;5077387;28;19965;-62
2022/09/27 09:34:34;;;;;;;;;;;;;;;;;;5073895;28;20395;-63
2022/09/27 09:36:59;;;;;;;;;;;;;;;;;;5090311;28;19919;-63
2022/09/27 09:39:24;;;;;;;;;;;;;;;;;;5094064;28;20348;-63
2022/09/27 09:41:49;;;;;;;;;;;;;;;;;;5074674;28;19919;-63
2022/09/27 09:44:14;;;;;;;;;;;;;;;;;;5094675;28;20044;-63
2022/09/27 09:46:40;;;;;;;;;;;;;;;;;;5085573;28;20300;-62
2022/09/27 09:49:06;;;;;;;;;;;;;;;;;;5073616;28;19951;-62
2022/09/27 09:51:33;;;;;;;;;;;;;;;;;;5076660;28;19918;-62
2022/09/27 09:53:58;;;;;;;;;;;;;;;;;;5074149;28;19909;-61
2022/09/27 09:56:23;;;;;;;;;;;;;;;;;;5074893;28;19916;-62
2022/09/27 09:58:49;;;;;;;;;;;;;;;;;;5073707;28;19912;-62
2022/09/27 10:01:15;;;;;;;;;;;;;;;;;;5073714;28;20015;-63
2022/09/27 10:03:40;;;;;;;;;;;;;;;;;;5076330;28;19956;-62
2022/09/27 10:06:05;;;;;;;;;;;;;;;;;;5086623;28;19916;-62
2022/09/27 10:08:31;;;;;;;;;;;;;;;;;;5086038;28;19912;-63
2022/09/27 10:10:57;;;;;;;;;;;;;;;;;;5085636;28;20288;-62
2022/09/27 10:13:22;;;;;;;;;;;;;;;;;;5080722;28;19912;-63
2022/09/27 10:15:47;;;;;;;;;;;;;;;;;;5072499;28;19919;-62
2022/09/27 10:18:12;;;;;;;;;;;;;;;;;;5076030;28;19966;-62
2022/09/27 10:20:37;;;;;;;;;;;;;;;;;;5053540;28;20380;-62
2022/09/27 10:23:02;;;;;;;;;;;;;;;;;;5064729;28;19913;-62
2022/09/27 10:25:27;;;;;;;;;;;;;;;;;;5046164;28;19920;-62
2022/09/27 10:27:54;;;;;;;;;;;;;;;;;;5070480;28;19909;-63
2022/09/27 10:30:19;;;;;;;;;;;;;;;;;;5065738;28;20330;-63
2022/09/27 10:32:44;;;;;;;;;;;;;;;;;;5057652;28;20017;-63
2022/09/27 10:35:09;;;;;;;;;;;;;;;;;;5057524;28;19913;-62
2022/09/27 10:37:35;;;;;;;;;;;;;;;;;;5055495;28;19912;-62
2022/09/27 10:40:00;;;;;;;;;;;;;;;;;;5062520;28;19939;-63
2022/09/27 10:42:25;;;;;;;;;;;;;;;;;;5054022;28;19912;-61
2022/09/27 10:44:50;;;;;;;;;;;;;;;;;;5053423;28;19952;-62
2022/09/27 10:47:18;;;;;;;;;;;;;;;;;;5048162;28;19921;-61
2022/09/27 10:49:43;;;;;;;;;;;;;;;;;;5061529;28;20396;-62
2022/09/27 10:52:09;;;;;;;;;;;;;;;;;;5063422;28;19912;-62
2022/09/27 10:54:34;;;;;;;;;;;;;;;;;;5054980;28;19970;-63
2022/09/27 10:56:59;;;;;;;;;;;;;;;;;;5064163;28;19913;-63
2022/09/27 10:59:24;;;;;;;;;;;;;;;;;;5047110;28;19920;-63
2022/09/27 11:01:49;;;;;;;;;;;;;;;;;;5069417;28;19921;-62
2022/09/27 11:04:15;;;;;;;;;;;;;;;;;;5063501;28;20003;-70
2022/09/27 11:06:40;;;;;;;;;;;;;;;;;;5049849;28;19912;-66
2022/09/27 11:09:05;;;;;;;;;;;;;;;;;;5045363;28;20305;-64
2022/09/27 11:11:30;;;;;;;;;;;;;;;;;;5065551;28;20549;-66
2022/09/27 11:13:55;;;;;;;;;;;;;;;;;;5060568;28;19922;-69
2022/09/27 11:16:21;;;;;;;;;;;;;;;;;;5054145;28;19928;-68
2022/09/27 11:18:46;;;;;;;;;;;;;;;;;;5067114;28;19921;-67
2022/09/27 11:21:11;;;;;;;;;;;;;;;;;;5081006;28;20390;-69
2022/09/27 11:23:36;;;;;;;;;;;;;;;;;;5066620;28;19919;-68
2022/09/27 11:26:01;;;;;;;;;;;;;;;;;;5076140;28;20006;-69
2022/09/27 11:28:27;;;;;;;;;;;;;;;;;;5073352;28;19920;-66
2022/09/27 11:30:52;;;;;;;;;;;;;;;;;;5060643;28;19917;-69
2022/09/27 11:33:17;;;;;;;;;;;;;;;;;;5058003;28;19912;-67
2022/09/27 11:35:45;;;;;;;;;;;;;;;;;;5078342;28;19912;-66
2022/09/27 11:38:11;;;;;;;;;;;;;;;;;;5061408;28;19912;-65
2022/09/27 11:40:36;;;;;;;;;;;;;;;;;;5057942;28;19919;-67
2022/09/27 11:43:01;;;;;;;;;;;;;;;;;;5088257;28;20376;-67
2022/09/27 11:45:26;;;;;;;;;;;;;;;;;;5083801;28;19912;-67
2022/09/27 11:47:52;;;;;;;;;;;;;;;;;;5081280;28;20360;-68
2022/09/27 11:50:17;;;;;;;;;;;;;;;;;;5078789;28;19916;-66
2022/09/27 11:52:42;;;;;;;;;;;;;;;;;;5072369;28;20361;-66
2022/09/27 11:55:08;;;;;;;;;;;;;;;;;;5065704;28;20356;-68
2022/09/27 11:57:34;;;;;;;;;;;;;;;;;;5055913;28;19963;-68
2022/09/27 11:59:59;;;;;;;;;;;;;;;;;;5080347;28;19924;-67
2022/09/27 12:02:24;;;;;;;;;;;;;;;;;;5081339;28;19916;-71
2022/09/27 12:04:50;;;;;;;;;;;;;;;;;;5079240;28;19912;-70
2022/09/27 12:07:15;;;;;;;;;;;;;;;;;;5070085;28;19923;-68
2022/09/27 12:09:40;;;;;;;;;;;;;;;;;;5084329;28;19919;-67
2022/09/27 12:12:05;;;;;;;;;;;;;;;;;;5077929;28;19981;-66
2022/09/27 12:14:31;;;;;;;;;;;;;;;;;;5053949;28;19995;-67
2022/09/27 12:16:56;;;;;;;;;;;;;;;;;;5075999;28;19916;-65
2022/09/27 12:19:21;;;;;;;;;;;;;;;;;;5073017;28;19921;-65
2022/09/27 12:21:46;;;;;;;;;;;;;;;;;;5058357;28;19997;-68
2022/09/27 12:24:11;;;;;;;;;;;;;;;;;;5064709;28;19943;-67
2022/09/27 12:26:36;;;;;;;;;;;;;;;;;;5071927;28;19916;-74
2022/09/27 12:29:01;;;;;;;;;;;;;;;;;;5062376;28;20377;-71
2022/09/27 12:31:27;;;;;;;;;;;;;;;;;;5085224;28;19913;-69
2022/09/27 12:33:52;;;;;;;;;;;;;;;;;;5064138;28;19912;-67
2022/09/27 12:36:18;;;;;;;;;;;;;;;;;;5086329;28;19916;-68
2022/09/27 12:38:43;;;;;;;;;;;;;;;;;;5086876;28;19967;-66
2022/09/27 12:41:08;;;;;;;;;;;;;;;;;;5084217;28;19912;-69
2022/09/27 12:43:34;;;;;;;;;;;;;;;;;;5075559;28;20008;-69
2022/09/27 12:45:59;;;;;;;;;;;;;;;;;;5073526;28;20369;-69
2022/09/27 12:48:24;;;;;;;;;;;;;;;;;;5064107;28;19979;-68
2022/09/27 12:50:49;;;;;;;;;;;;;;;;;;5082615;28;19919;-69
2022/09/27 12:53:14;;;;;;;;;;;;;;;;;;5064279;28;19920;-68
2022/09/27 12:55:39;;;;;;;;;;;;;;;;;;5076279;28;19916;-68
2022/09/27 12:58:07;;;;;;;;;;;;;;;;;;5068153;28;19917;-69
2022/09/27 13:00:32;;;;;;;;;;;;;;;;;;5082423;28;19920;-69
2022/09/27 13:02:57;;;;;;;;;;;;;;;;;;5069679;28;19961;-68
2022/09/27 13:05:22;;;;;;;;;;;;;;;;;;5078483;28;19923;-69
2022/09/27 13:07:48;;;;;;;;;;;;;;;;;;5085081;28;19912;-67
2022/09/27 13:10:13;;;;;;;;;;;;;;;;;;5082611;28;19922;-68
2022/09/27 13:12:38;;;;;;;;;;;;;;;;;;5079745;28;19919;-68
2022/09/27 13:15:03;;;;;;;;;;;;;;;;;;5081433;28;19919;-68
2022/09/27 13:17:29;;;;;;;;;;;;;;;;;;5072057;28;19917;-66
2022/09/27 13:19:54;;;;;;;;;;;;;;;;;;5065756;28;19921;-68
2022/09/27 13:22:19;;;;;;;;;;;;;;;;;;5074397;28;19916;-70
2022/09/27 13:24:45;;;;;;;;;;;;;;;;;;5070619;28;19912;-68
2022/09/27 13:27:10;;;;;;;;;;;;;;;;;;5069604;28;19912;-68
2022/09/27 13:29:36;;;;;;;;;;;;;;;;;;5092520;28;20272;-67
2022/09/27 13:32:01;;;;;;;;;;;;;;;;;;5088896;28;20018;-69
2022/09/27 13:34:26;;;;;;;;;;;;;;;;;;5082430;28;20411;-66
2022/09/27 13:36:51;;;;;;;;;;;;;;;;;;5083161;28;19924;-68
2022/09/27 13:39:18;;;;;;;;;;;;;;;;;;5080788;28;19927;-67
2022/09/27 13:41:43;;;;;;;;;;;;;;;;;;5086227;28;19951;-68
2022/09/27 13:44:08;;;;;;;;;;;;;;;;;;5076686;28;19958;-67
2022/09/27 13:46:33;;;;;;;;;;;;;;;;;;5074783;28;19919;-68
2022/09/27 13:48:59;;;;;;;;;;;;;;;;;;5078695;28;19919;-68
2022/09/27 13:51:24;;;;;;;;;;;;;;;;;;5079020;28;19913;-68
2022/09/27 13:53:49;;;;;;;;;;;;;;;;;;5073940;28;19951;-68
2022/09/27 13:56:14;;;;;;;;;;;;;;;;;;5079731;28;19912;-67
2022/09/27 13:58:40;;;;;;;;;;;;;;;;;;5082386;28;19917;-68
2022/09/27 14:01:05;;;;;;;;;;;;;;;;;;5080791;28;19923;-67
2022/09/27 14:03:34;;;;;;;;;;;;;;;;;;5088647;28;19908;-69
2022/09/27 14:06:16;;;;;;;;;;;;;;;;;;5086343;28;20045;-70
2022/09/27 14:08:41;;;;;;;;;;;;;;;;;;5064302;28;20300;-68
2022/09/27 14:11:06;;;;;;;;;;;;;;;;;;5083177;28;19956;-69
2022/09/27 14:13:31;;;;;;;;;;;;;;;;;;5085990;28;19916;-69
2022/09/27 14:15:56;;;;;;;;;;;;;;;;;;5079240;28;20291;-68
2022/09/27 14:18:21;;;;;;;;;;;;;;;;;;5066728;28;20403;-68
2022/09/27 14:20:47;;;;;;;;;;;;;;;;;;5063186;28;19912;-67
2022/09/27 14:23:12;;;;;;;;;;;;;;;;;;5068992;28;19935;-68
2022/09/27 14:25:37;;;;;;;;;;;;;;;;;;5057606;28;20438;-68
2022/09/27 14:28:02;;;;;;;;;;;;;;;;;;5054804;28;19917;-68
2022/09/27 14:30:27;;;;;;;;;;;;;;;;;;5071492;28;19956;-68
2022/09/27 14:33:00;;;;;;;;;;;;;;;;;;5061679;28;19920;-67
2022/09/27 14:38:09;;;;;;;;;;;;;;;;;;5053086;28;20076;-67
2022/09/27 14:40:34;;;;;;;;;;;;;;;;;;5060570;28;20440;-69
2022/09/27 14:42:59;;;;;;;;;;;;;;;;;;5063621;28;20012;-68
2022/09/27 14:45:24;;;;;;;;;;;;;;;;;;5069207;28;19916;-68
2022/09/27 14:47:49;;;;;;;;;;;;;;;;;;5057774;28;19912;-68
2022/09/27 14:50:14;;;;;;;;;;;;;;;;;;5057403;28;21894;-68
2022/09/27 14:52:40;;;;;;;;;;;;;;;;;;5062968;28;20011;-68
2022/09/27 14:55:05;;;;;;;;;;;;;;;;;;5056687;28;20389;-69
2022/09/27 14:57:32;;;;;;;;;;;;;;;;;;5047010;28;19916;-67
2022/09/27 14:59:59;;;;;;;;;;;;;;;;;;5045724;28;20034;-68
2022/09/27 15:02:25;;;;;;;;;;;;;;;;;;5064335;28;20085;-68
2022/09/27 15:04:50;;;;;;;;;;;;;;;;;;5049055;28;20348;-68
2022/09/27 15:07:15;;;;;;;;;;;;;;;;;;5059840;28;19919;-66
2022/09/27 15:09:41;;;;;;;;;;;;;;;;;;5063828;28;19968;-67
2022/09/27 15:12:07;;;;;;;;;;;;;;;;;;5063025;28;20045;-68
2022/09/27 15:14:33;;;;;;;;;;;;;;;;;;5057921;28;20019;-68
2022/09/27 15:17:04;;;;;;;;;;;;;;;;;;5057657;28;19982;-68
2022/09/27 15:19:29;;;;;;;;;;;;;;;;;;5061522;28;19920;-68
2022/09/27 15:21:54;;;;;;;;;;;;;;;;;;5075440;28;19939;-69
2022/09/27 15:24:19;;;;;;;;;;;;;;;;;;5068670;28;20007;-68
2022/09/27 15:26:44;;;;;;;;;;;;;;;;;;5076922;28;20283;-69
2022/09/27 15:29:09;;;;;;;;;;;;;;;;;;5078322;28;20357;-69
2022/09/27 15:31:35;;;;;;;;;;;;;;;;;;5080382;28;19919;-69
2022/09/27 15:34:00;;;;;;;;;;;;;;;;;;5086194;28;20006;-68
2022/09/27 15:36:25;;;;;;;;;;;;;;;;;;5058523;28;20000;-68
2022/09/27 15:38:50;;;;;;;;;;;;;;;;;;5082179;28;19916;-68
2022/09/27 15:41:15;;;;;;;;;;;;;;;;;;5082534;28;19917;-69
2022/09/27 15:43:40;;;;;;;;;;;;;;;;;;5079397;28;19923;-67
2022/09/27 15:46:06;;;;;;;;;;;;;;;;;;5083404;28;19912;-68
2022/09/27 15:48:31;;;;;;;;;;;;;;;;;;5071009;28;19931;-68
2022/09/27 15:50:56;;;;;;;;;;;;;;;;;;5074350;28;20364;-65
2022/09/27 15:53:21;;;;;;;;;;;;;;;;;;5087914;28;19916;-68
2022/09/27 15:55:48;;;;;;;;;;;;;;;;;;5069347;28;19991;-67
2022/09/27 15:58:14;;;;;;;;;;;;;;;;;;5084801;28;19920;-68
2022/09/27 16:00:40;;;;;;;;;;;;;;;;;;5082038;28;19912;-67
2022/09/27 16:03:05;;;;;;;;;;;;;;;;;;5071129;28;20747;-68
2022/09/27 16:05:32;;;;;;;;;;;;;;;;;;5076580;28;20357;-67
2022/09/27 16:07:58;;;;;;;;;;;;;;;;;;5084663;28;19923;-68
2022/09/27 16:10:23;;;;;;;;;;;;;;;;;;5078242;28;19919;-69
2022/09/27 16:12:49;;;;;;;;;;;;;;;;;;5081519;28;19912;-69
2022/09/27 16:15:14;;;;;;;;;;;;;;;;;;5082363;28;19920;-68
2022/09/27 16:17:41;;;;;;;;;;;;;;;;;;5076833;28;20316;-68
2022/09/27 16:20:07;;;;;;;;;;;;;;;;;;5080902;28;19924;-66
2022/09/27 16:22:32;;;;;;;;;;;;;;;;;;5080254;28;19912;-67
2022/09/27 16:24:58;;;;;;;;;;;;;;;;;;5066531;28;20684;-67
2022/09/27 16:27:23;;;;;;;;;;;;;;;;;;5080959;28;19913;-67
2022/09/27 16:29:48;;;;;;;;;;;;;;;;;;5078998;28;19912;-68
2022/09/27 16:32:13;;;;;;;;;;;;;;;;;;5077168;28;20371;-68
2022/09/27 16:34:39;;;;;;;;;;;;;;;;;;5088788;28;19912;-68
2022/09/27 16:37:06;;;;;;;;;;;;;;;;;;5089497;28;19918;-69
2022/09/27 16:39:31;;;;;;;;;;;;;;;;;;5082684;28;19942;-66
2022/09/27 16:41:56;;;;;;;;;;;;;;;;;;5084946;28;20732;-65